sensor_id;sensor_type;location;lat;lon;timestamp;P1;durP1;ratioP1;P2;durP2;ratioP2
56269;SDS011;42176;43.240;27.880;2022-10-15T00:02:03;1.15;;;0.65;;
56269;SDS011;42176;43.240;27.880;2022-10-15T00:04:29;0.60;;;0.60;;
56269;SDS011;42176;43.240;27.880;2022-10-15T00:06:55;3.80;;;1.10;;
56269;SDS011;42176;43.240;27.880;2022-10-15T00:09:21;3.70;;;0.70;;
56269;SDS011;42176;43.240;27.880;2022-10-15T00:11:46;7.28;;;1.40;;
56269;SDS011;42176;43.240;27.880;2022-10-15T00:14:11;1.02;;;0.63;;
56269;SDS011;42176;43.240;27.880;2022-10-15T00:16:37;3.15;;;0.77;;
56269;SDS011;42176;43.240;27.880;2022-10-15T00:19:02;4.57;;;0.73;;
56269;SDS011;42176;43.240;27.880;2022-10-15T00:21:28;2.67;;;0.90;;
56269;SDS011;42176;43.240;27.880;2022-10-15T00:23:54;6.53;;;0.70;;
56269;SDS011;42176;43.240;27.880;2022-10-15T00:26:25;2.35;;;0.90;;
56269;SDS011;42176;43.240;27.880;2022-10-15T00:28:53;4.72;;;1.27;;
56269;SDS011;42176;43.240;27.880;2022-10-15T00:31:20;6.88;;;1.02;;
56269;SDS011;42176;43.240;27.880;2022-10-15T00:33:47;5.88;;;1.10;;
56269;SDS011;42176;43.240;27.880;2022-10-15T00:36:19;4.97;;;1.42;;
56269;SDS011;42176;43.240;27.880;2022-10-15T00:38:46;3.38;;;1.10;;
56269;SDS011;42176;43.240;27.880;2022-10-15T00:41:13;1.10;;;0.80;;
56269;SDS011;42176;43.240;27.880;2022-10-15T00:43:56;7.60;;;1.35;;
56269;SDS011;42176;43.240;27.880;2022-10-15T00:46:39;2.10;;;1.00;;
56269;SDS011;42176;43.240;27.880;2022-10-15T00:51:36;1.20;;;0.70;;
56269;SDS011;42176;43.240;27.880;2022-10-15T00:54:06;2.38;;;0.95;;
56269;SDS011;42176;43.240;27.880;2022-10-15T00:56:33;3.47;;;0.93;;
56269;SDS011;42176;43.240;27.880;2022-10-15T00:59:01;2.80;;;1.20;;
56269;SDS011;42176;43.240;27.880;2022-10-15T01:01:28;1.50;;;1.30;;
56269;SDS011;42176;43.240;27.880;2022-10-15T01:03:54;8.55;;;1.10;;
56269;SDS011;42176;43.240;27.880;2022-10-15T01:06:20;3.83;;;1.48;;
56269;SDS011;42176;43.240;27.880;2022-10-15T01:08:47;3.45;;;0.82;;
56269;SDS011;42176;43.240;27.880;2022-10-15T01:17:04;1.80;;;1.10;;
56269;SDS011;42176;43.240;27.880;2022-10-15T01:25:33;2.05;;;1.25;;
56269;SDS011;42176;43.240;27.880;2022-10-15T01:31:30;2.75;;;1.10;;
56269;SDS011;42176;43.240;27.880;2022-10-15T01:37:17;1.98;;;1.20;;
56269;SDS011;42176;43.240;27.880;2022-10-15T01:39:48;1.25;;;1.00;;
56269;SDS011;42176;43.240;27.880;2022-10-15T01:42:26;3.03;;;1.10;;
56269;SDS011;42176;43.240;27.880;2022-10-15T01:44:59;1.23;;;0.82;;
56269;SDS011;42176;43.240;27.880;2022-10-15T01:47:35;1.95;;;1.52;;
56269;SDS011;42176;43.240;27.880;2022-10-15T01:50:07;1.10;;;1.10;;
56269;SDS011;42176;43.240;27.880;2022-10-15T01:52:37;3.00;;;1.60;;
56269;SDS011;42176;43.240;27.880;2022-10-15T01:55:05;5.25;;;1.20;;
56269;SDS011;42176;43.240;27.880;2022-10-15T01:57:34;1.90;;;1.15;;
56269;SDS011;42176;43.240;27.880;2022-10-15T02:00:01;1.90;;;1.30;;
56269;SDS011;42176;43.240;27.880;2022-10-15T02:02:29;4.20;;;1.50;;
56269;SDS011;42176;43.240;27.880;2022-10-15T02:04:54;3.97;;;1.92;;
56269;SDS011;42176;43.240;27.880;2022-10-15T02:10:23;3.42;;;1.20;;
56269;SDS011;42176;43.240;27.880;2022-10-15T02:16:11;1.60;;;1.40;;
56269;SDS011;42176;43.240;27.880;2022-10-15T02:21:16;3.33;;;1.63;;
56269;SDS011;42176;43.240;27.880;2022-10-15T02:24:02;5.60;;;1.77;;
56269;SDS011;42176;43.240;27.880;2022-10-15T02:26:34;1.75;;;1.23;;
56269;SDS011;42176;43.240;27.880;2022-10-15T02:29:01;3.47;;;1.70;;
56269;SDS011;42176;43.240;27.880;2022-10-15T02:31:31;3.70;;;1.95;;
56269;SDS011;42176;43.240;27.880;2022-10-15T02:34:04;1.85;;;1.52;;
56269;SDS011;42176;43.240;27.880;2022-10-15T02:38:57;4.57;;;1.77;;
56269;SDS011;42176;43.240;27.880;2022-10-15T02:41:26;3.10;;;1.95;;
56269;SDS011;42176;43.240;27.880;2022-10-15T02:43:53;2.55;;;1.30;;
56269;SDS011;42176;43.240;27.880;2022-10-15T02:46:19;9.50;;;2.03;;
56269;SDS011;42176;43.240;27.880;2022-10-15T02:48:45;6.57;;;1.83;;
56269;SDS011;42176;43.240;27.880;2022-10-15T02:51:10;4.97;;;2.30;;
56269;SDS011;42176;43.240;27.880;2022-10-15T02:53:36;2.90;;;2.10;;
56269;SDS011;42176;43.240;27.880;2022-10-15T02:56:01;14.70;;;3.30;;
56269;SDS011;42176;43.240;27.880;2022-10-15T02:58:27;9.02;;;3.17;;
56269;SDS011;42176;43.240;27.880;2022-10-15T03:00:53;4.63;;;2.33;;
56269;SDS011;42176;43.240;27.880;2022-10-15T03:03:19;4.15;;;2.45;;
56269;SDS011;42176;43.240;27.880;2022-10-15T03:05:44;11.45;;;2.53;;
56269;SDS011;42176;43.240;27.880;2022-10-15T03:08:10;4.45;;;2.67;;
56269;SDS011;42176;43.240;27.880;2022-10-15T03:10:35;3.53;;;2.45;;
56269;SDS011;42176;43.240;27.880;2022-10-15T03:13:04;4.72;;;2.35;;
56269;SDS011;42176;43.240;27.880;2022-10-15T03:15:30;10.02;;;3.30;;
56269;SDS011;42176;43.240;27.880;2022-10-15T03:17:56;4.40;;;3.03;;
56269;SDS011;42176;43.240;27.880;2022-10-15T03:20:21;5.72;;;2.92;;
56269;SDS011;42176;43.240;27.880;2022-10-15T03:22:47;4.45;;;2.90;;
56269;SDS011;42176;43.240;27.880;2022-10-15T03:25:13;7.70;;;3.28;;
56269;SDS011;42176;43.240;27.880;2022-10-15T03:27:38;7.22;;;3.05;;
56269;SDS011;42176;43.240;27.880;2022-10-15T03:30:04;4.75;;;2.67;;
56269;SDS011;42176;43.240;27.880;2022-10-15T03:32:30;3.58;;;2.65;;
56269;SDS011;42176;43.240;27.880;2022-10-15T03:34:55;9.02;;;2.55;;
56269;SDS011;42176;43.240;27.880;2022-10-15T03:37:21;4.28;;;2.90;;
56269;SDS011;42176;43.240;27.880;2022-10-15T03:39:46;7.22;;;3.05;;
56269;SDS011;42176;43.240;27.880;2022-10-15T03:42:11;5.10;;;2.70;;
56269;SDS011;42176;43.240;27.880;2022-10-15T03:44:37;4.43;;;3.33;;
56269;SDS011;42176;43.240;27.880;2022-10-15T03:47:02;6.82;;;2.90;;
56269;SDS011;42176;43.240;27.880;2022-10-15T03:49:28;7.00;;;2.78;;
56269;SDS011;42176;43.240;27.880;2022-10-15T03:51:53;3.92;;;2.45;;
56269;SDS011;42176;43.240;27.880;2022-10-15T03:54:19;7.90;;;2.92;;
56269;SDS011;42176;43.240;27.880;2022-10-15T03:56:44;7.82;;;3.70;;
56269;SDS011;42176;43.240;27.880;2022-10-15T03:59:10;5.40;;;3.33;;
56269;SDS011;42176;43.240;27.880;2022-10-15T04:04:20;7.38;;;4.07;;
56269;SDS011;42176;43.240;27.880;2022-10-15T04:06:45;5.78;;;4.00;;
56269;SDS011;42176;43.240;27.880;2022-10-15T04:09:12;6.28;;;3.97;;
56269;SDS011;42176;43.240;27.880;2022-10-15T04:11:38;9.85;;;4.25;;
56269;SDS011;42176;43.240;27.880;2022-10-15T04:14:04;9.35;;;4.25;;
56269;SDS011;42176;43.240;27.880;2022-10-15T04:16:29;4.90;;;3.38;;
56269;SDS011;42176;43.240;27.880;2022-10-15T04:18:55;4.65;;;3.38;;
56269;SDS011;42176;43.240;27.880;2022-10-15T04:21:22;7.03;;;4.55;;
56269;SDS011;42176;43.240;27.880;2022-10-15T04:23:48;7.80;;;4.43;;
56269;SDS011;42176;43.240;27.880;2022-10-15T04:26:14;6.65;;;3.88;;
56269;SDS011;42176;43.240;27.880;2022-10-15T04:28:39;11.60;;;5.28;;
56269;SDS011;42176;43.240;27.880;2022-10-15T04:31:05;8.18;;;5.03;;
56269;SDS011;42176;43.240;27.880;2022-10-15T04:33:30;14.00;;;5.75;;
56269;SDS011;42176;43.240;27.880;2022-10-15T04:38:24;11.82;;;5.72;;
56269;SDS011;42176;43.240;27.880;2022-10-15T04:40:56;11.18;;;4.43;;
56269;SDS011;42176;43.240;27.880;2022-10-15T04:43:24;8.25;;;5.38;;
56269;SDS011;42176;43.240;27.880;2022-10-15T04:45:49;8.43;;;4.38;;
56269;SDS011;42176;43.240;27.880;2022-10-15T04:48:14;11.48;;;4.70;;
56269;SDS011;42176;43.240;27.880;2022-10-15T04:50:40;10.45;;;5.72;;
56269;SDS011;42176;43.240;27.880;2022-10-15T04:53:05;9.63;;;5.38;;
56269;SDS011;42176;43.240;27.880;2022-10-15T04:55:31;7.22;;;4.55;;
56269;SDS011;42176;43.240;27.880;2022-10-15T04:57:56;12.63;;;4.82;;
56269;SDS011;42176;43.240;27.880;2022-10-15T05:02:50;8.60;;;4.85;;
56269;SDS011;42176;43.240;27.880;2022-10-15T05:05:16;7.57;;;5.30;;
56269;SDS011;42176;43.240;27.880;2022-10-15T05:07:41;7.10;;;4.75;;
56269;SDS011;42176;43.240;27.880;2022-10-15T05:10:07;5.03;;;4.13;;
56269;SDS011;42176;43.240;27.880;2022-10-15T05:12:32;10.18;;;5.30;;
56269;SDS011;42176;43.240;27.880;2022-10-15T05:14:57;7.68;;;5.40;;
56269;SDS011;42176;43.240;27.880;2022-10-15T05:17:23;9.25;;;5.07;;
56269;SDS011;42176;43.240;27.880;2022-10-15T05:19:48;11.88;;;4.88;;
56269;SDS011;42176;43.240;27.880;2022-10-15T05:22:14;6.20;;;4.22;;
56269;SDS011;42176;43.240;27.880;2022-10-15T05:24:39;8.27;;;5.50;;
56269;SDS011;42176;43.240;27.880;2022-10-15T05:27:05;10.93;;;5.20;;
56269;SDS011;42176;43.240;27.880;2022-10-15T05:29:30;6.60;;;4.28;;
56269;SDS011;42176;43.240;27.880;2022-10-15T05:31:55;7.90;;;4.88;;
56269;SDS011;42176;43.240;27.880;2022-10-15T05:34:21;8.30;;;4.35;;
56269;SDS011;42176;43.240;27.880;2022-10-15T05:36:46;8.77;;;5.35;;
56269;SDS011;42176;43.240;27.880;2022-10-15T05:39:12;9.43;;;4.50;;
56269;SDS011;42176;43.240;27.880;2022-10-15T05:41:38;7.75;;;5.20;;
56269;SDS011;42176;43.240;27.880;2022-10-15T05:44:04;8.85;;;4.40;;
56269;SDS011;42176;43.240;27.880;2022-10-15T05:46:29;9.52;;;5.00;;
56269;SDS011;42176;43.240;27.880;2022-10-15T05:48:55;9.27;;;5.55;;
56269;SDS011;42176;43.240;27.880;2022-10-15T05:51:22;10.77;;;4.95;;
56269;SDS011;42176;43.240;27.880;2022-10-15T05:53:53;12.00;;;5.40;;
56269;SDS011;42176;43.240;27.880;2022-10-15T05:56:19;9.93;;;4.47;;
56269;SDS011;42176;43.240;27.880;2022-10-15T05:58:44;8.02;;;4.25;;
56269;SDS011;42176;43.240;27.880;2022-10-15T06:01:10;8.13;;;4.50;;
56269;SDS011;42176;43.240;27.880;2022-10-15T06:03:37;12.43;;;4.80;;
56269;SDS011;42176;43.240;27.880;2022-10-15T06:06:04;5.45;;;4.07;;
56269;SDS011;42176;43.240;27.880;2022-10-15T06:08:36;9.95;;;4.50;;
56269;SDS011;42176;43.240;27.880;2022-10-15T06:11:02;6.95;;;4.78;;
56269;SDS011;42176;43.240;27.880;2022-10-15T06:13:28;7.93;;;3.83;;
56269;SDS011;42176;43.240;27.880;2022-10-15T06:15:53;4.10;;;3.70;;
56269;SDS011;42176;43.240;27.880;2022-10-15T06:18:19;8.50;;;4.35;;
56269;SDS011;42176;43.240;27.880;2022-10-15T06:20:49;9.82;;;4.75;;
56269;SDS011;42176;43.240;27.880;2022-10-15T06:23:16;11.65;;;5.07;;
56269;SDS011;42176;43.240;27.880;2022-10-15T06:25:42;10.50;;;4.20;;
56269;SDS011;42176;43.240;27.880;2022-10-15T06:28:07;7.22;;;3.58;;
56269;SDS011;42176;43.240;27.880;2022-10-15T06:30:33;6.00;;;3.83;;
56269;SDS011;42176;43.240;27.880;2022-10-15T06:32:59;7.80;;;4.03;;
56269;SDS011;42176;43.240;27.880;2022-10-15T06:35:25;4.72;;;3.78;;
56269;SDS011;42176;43.240;27.880;2022-10-15T06:37:51;8.45;;;4.38;;
56269;SDS011;42176;43.240;27.880;2022-10-15T06:40:17;9.60;;;3.85;;
56269;SDS011;42176;43.240;27.880;2022-10-15T06:42:43;5.43;;;3.58;;
56269;SDS011;42176;43.240;27.880;2022-10-15T06:45:08;9.98;;;5.32;;
56269;SDS011;42176;43.240;27.880;2022-10-15T06:47:35;7.63;;;3.85;;
56269;SDS011;42176;43.240;27.880;2022-10-15T06:50:01;6.32;;;4.45;;
56269;SDS011;42176;43.240;27.880;2022-10-15T06:52:29;7.07;;;4.57;;
56269;SDS011;42176;43.240;27.880;2022-10-15T06:54:55;9.63;;;3.28;;
56269;SDS011;42176;43.240;27.880;2022-10-15T06:57:21;7.03;;;3.85;;
56269;SDS011;42176;43.240;27.880;2022-10-15T06:59:46;5.55;;;4.22;;
56269;SDS011;42176;43.240;27.880;2022-10-15T07:02:12;6.97;;;4.10;;
56269;SDS011;42176;43.240;27.880;2022-10-15T07:04:42;6.85;;;3.47;;
56269;SDS011;42176;43.240;27.880;2022-10-15T07:07:07;9.32;;;4.28;;
56269;SDS011;42176;43.240;27.880;2022-10-15T07:09:33;4.22;;;3.17;;
56269;SDS011;42176;43.240;27.880;2022-10-15T07:11:59;5.57;;;2.83;;
56269;SDS011;42176;43.240;27.880;2022-10-15T07:14:25;6.30;;;2.85;;
56269;SDS011;42176;43.240;27.880;2022-10-15T07:16:56;6.80;;;2.97;;
56269;SDS011;42176;43.240;27.880;2022-10-15T07:19:22;6.30;;;2.67;;
56269;SDS011;42176;43.240;27.880;2022-10-15T07:21:47;4.57;;;2.10;;
56269;SDS011;42176;43.240;27.880;2022-10-15T07:24:13;5.20;;;2.15;;
56269;SDS011;42176;43.240;27.880;2022-10-15T07:26:41;3.25;;;2.35;;
56269;SDS011;42176;43.240;27.880;2022-10-15T07:29:13;7.47;;;2.80;;
56269;SDS011;42176;43.240;27.880;2022-10-15T07:31:41;2.92;;;2.72;;
56269;SDS011;42176;43.240;27.880;2022-10-15T07:34:07;5.40;;;2.47;;
56269;SDS011;42176;43.240;27.880;2022-10-15T07:36:33;2.63;;;2.20;;
56269;SDS011;42176;43.240;27.880;2022-10-15T07:38:58;3.60;;;2.50;;
56269;SDS011;42176;43.240;27.880;2022-10-15T07:41:33;3.95;;;2.30;;
56269;SDS011;42176;43.240;27.880;2022-10-15T07:43:58;7.35;;;2.92;;
56269;SDS011;42176;43.240;27.880;2022-10-15T07:46:24;6.45;;;3.45;;
56269;SDS011;42176;43.240;27.880;2022-10-15T07:48:52;7.50;;;3.65;;
56269;SDS011;42176;43.240;27.880;2022-10-15T07:51:18;15.27;;;3.97;;
56269;SDS011;42176;43.240;27.880;2022-10-15T07:53:46;6.13;;;3.55;;
56269;SDS011;42176;43.240;27.880;2022-10-15T07:56:18;6.88;;;3.63;;
56269;SDS011;42176;43.240;27.880;2022-10-15T07:58:43;5.32;;;3.35;;
56269;SDS011;42176;43.240;27.880;2022-10-15T08:01:16;6.90;;;2.47;;
56269;SDS011;42176;43.240;27.880;2022-10-15T08:03:42;7.85;;;2.70;;
56269;SDS011;42176;43.240;27.880;2022-10-15T08:06:08;6.20;;;3.40;;
56269;SDS011;42176;43.240;27.880;2022-10-15T08:08:34;3.60;;;2.67;;
56269;SDS011;42176;43.240;27.880;2022-10-15T08:11:07;6.38;;;3.08;;
56269;SDS011;42176;43.240;27.880;2022-10-15T08:13:34;12.05;;;5.00;;
56269;SDS011;42176;43.240;27.880;2022-10-15T08:16:00;8.48;;;5.50;;
56269;SDS011;42176;43.240;27.880;2022-10-15T08:18:25;7.88;;;4.55;;
56269;SDS011;42176;43.240;27.880;2022-10-15T08:20:51;8.27;;;5.30;;
56269;SDS011;42176;43.240;27.880;2022-10-15T08:23:19;8.07;;;4.93;;
56269;SDS011;42176;43.240;27.880;2022-10-15T08:25:44;11.15;;;5.15;;
56269;SDS011;42176;43.240;27.880;2022-10-15T08:28:13;7.43;;;5.93;;
56269;SDS011;42176;43.240;27.880;2022-10-15T08:30:38;9.93;;;6.97;;
56269;SDS011;42176;43.240;27.880;2022-10-15T08:33:04;9.65;;;7.00;;
56269;SDS011;42176;43.240;27.880;2022-10-15T08:35:29;7.15;;;5.25;;
56269;SDS011;42176;43.240;27.880;2022-10-15T08:37:59;5.40;;;4.25;;
56269;SDS011;42176;43.240;27.880;2022-10-15T08:40:25;5.63;;;4.50;;
56269;SDS011;42176;43.240;27.880;2022-10-15T08:42:51;8.48;;;4.88;;
56269;SDS011;42176;43.240;27.880;2022-10-15T08:45:17;4.68;;;3.78;;
56269;SDS011;42176;43.240;27.880;2022-10-15T08:47:50;7.45;;;4.28;;
56269;SDS011;42176;43.240;27.880;2022-10-15T08:50:26;9.35;;;4.10;;
56269;SDS011;42176;43.240;27.880;2022-10-15T08:52:58;7.57;;;3.80;;
56269;SDS011;42176;43.240;27.880;2022-10-15T08:55:25;6.30;;;3.13;;
56269;SDS011;42176;43.240;27.880;2022-10-15T08:58:11;9.65;;;3.47;;
56269;SDS011;42176;43.240;27.880;2022-10-15T09:00:55;5.75;;;3.40;;
56269;SDS011;42176;43.240;27.880;2022-10-15T09:03:30;4.82;;;2.45;;
56269;SDS011;42176;43.240;27.880;2022-10-15T09:06:34;6.28;;;2.90;;
56269;SDS011;42176;43.240;27.880;2022-10-15T09:14:36;7.78;;;2.30;;
56269;SDS011;42176;43.240;27.880;2022-10-15T09:17:08;4.30;;;2.25;;
56269;SDS011;42176;43.240;27.880;2022-10-15T09:19:44;4.50;;;2.38;;
56269;SDS011;42176;43.240;27.880;2022-10-15T09:22:14;5.90;;;2.10;;
56269;SDS011;42176;43.240;27.880;2022-10-15T09:24:48;7.22;;;2.80;;
56269;SDS011;42176;43.240;27.880;2022-10-15T09:27:18;7.18;;;2.80;;
56269;SDS011;42176;43.240;27.880;2022-10-15T09:35:59;3.80;;;1.45;;
56269;SDS011;42176;43.240;27.880;2022-10-15T09:43:52;2.70;;;1.38;;
56269;SDS011;42176;43.240;27.880;2022-10-15T09:46:22;3.75;;;1.63;;
56269;SDS011;42176;43.240;27.880;2022-10-15T09:49:08;9.50;;;4.15;;
56269;SDS011;42176;43.240;27.880;2022-10-15T09:52:07;4.68;;;2.35;;
56269;SDS011;42176;43.240;27.880;2022-10-15T09:57:44;4.63;;;1.40;;
56269;SDS011;42176;43.240;27.880;2022-10-15T10:00:13;2.58;;;1.45;;
56269;SDS011;42176;43.240;27.880;2022-10-15T10:02:39;3.70;;;1.30;;
56269;SDS011;42176;43.240;27.880;2022-10-15T10:08:06;5.60;;;3.35;;
56269;SDS011;42176;43.240;27.880;2022-10-15T10:10:42;11.05;;;2.92;;
56269;SDS011;42176;43.240;27.880;2022-10-15T10:13:19;7.40;;;3.20;;
56269;SDS011;42176;43.240;27.880;2022-10-15T10:16:04;1.88;;;1.20;;
56269;SDS011;42176;43.240;27.880;2022-10-15T10:18:32;2.05;;;1.65;;
56269;SDS011;42176;43.240;27.880;2022-10-15T10:20:59;5.18;;;1.35;;
56269;SDS011;42176;43.240;27.880;2022-10-15T10:23:30;4.75;;;1.75;;
56269;SDS011;42176;43.240;27.880;2022-10-15T10:26:04;7.75;;;1.80;;
56269;SDS011;42176;43.240;27.880;2022-10-15T10:41:56;2.53;;;1.30;;
56269;SDS011;42176;43.240;27.880;2022-10-15T10:49:49;4.05;;;2.03;;
56269;SDS011;42176;43.240;27.880;2022-10-15T10:52:21;5.10;;;1.60;;
56269;SDS011;42176;43.240;27.880;2022-10-15T10:58:01;4.97;;;2.08;;
56269;SDS011;42176;43.240;27.880;2022-10-15T11:00:43;10.77;;;2.13;;
56269;SDS011;42176;43.240;27.880;2022-10-15T11:03:27;3.88;;;2.67;;
56269;SDS011;42176;43.240;27.880;2022-10-15T11:15:40;5.38;;;1.70;;
56269;SDS011;42176;43.240;27.880;2022-10-15T11:29:54;3.95;;;1.52;;
56269;SDS011;42176;43.240;27.880;2022-10-15T11:35:20;4.03;;;1.73;;
56269;SDS011;42176;43.240;27.880;2022-10-15T11:47:02;6.85;;;2.35;;
56269;SDS011;42176;43.240;27.880;2022-10-15T11:58:33;3.90;;;2.08;;
56269;SDS011;42176;43.240;27.880;2022-10-15T12:01:04;1.63;;;1.13;;
56269;SDS011;42176;43.240;27.880;2022-10-15T12:03:43;7.13;;;1.33;;
56269;SDS011;42176;43.240;27.880;2022-10-15T12:06:21;2.17;;;1.50;;
56269;SDS011;42176;43.240;27.880;2022-10-15T12:08:52;4.22;;;2.58;;
56269;SDS011;42176;43.240;27.880;2022-10-15T12:11:26;7.65;;;2.30;;
56269;SDS011;42176;43.240;27.880;2022-10-15T12:14:01;2.65;;;1.63;;
56269;SDS011;42176;43.240;27.880;2022-10-15T12:16:40;1.52;;;1.00;;
56269;SDS011;42176;43.240;27.880;2022-10-15T12:19:21;6.93;;;2.25;;
56269;SDS011;42176;43.240;27.880;2022-10-15T12:22:00;8.40;;;2.75;;
56269;SDS011;42176;43.240;27.880;2022-10-15T12:35:01;9.38;;;3.33;;
56269;SDS011;42176;43.240;27.880;2022-10-15T12:37:39;4.15;;;1.98;;
56269;SDS011;42176;43.240;27.880;2022-10-15T12:45:39;9.25;;;2.13;;
56269;SDS011;42176;43.240;27.880;2022-10-15T12:50:41;7.25;;;2.20;;
56269;SDS011;42176;43.240;27.880;2022-10-15T12:58:47;5.60;;;2.25;;
56269;SDS011;42176;43.240;27.880;2022-10-15T13:09:02;3.78;;;2.17;;
56269;SDS011;42176;43.240;27.880;2022-10-15T13:11:41;3.55;;;2.15;;
56269;SDS011;42176;43.240;27.880;2022-10-15T13:16:55;8.13;;;2.60;;
56269;SDS011;42176;43.240;27.880;2022-10-15T13:19:29;5.15;;;2.20;;
56269;SDS011;42176;43.240;27.880;2022-10-15T13:22:00;3.60;;;1.98;;
56269;SDS011;42176;43.240;27.880;2022-10-15T13:24:44;7.72;;;2.33;;
56269;SDS011;42176;43.240;27.880;2022-10-15T13:27:52;3.75;;;1.73;;
56269;SDS011;42176;43.240;27.880;2022-10-15T13:30:12;7.18;;;2.45;;
56269;SDS011;42176;43.240;27.880;2022-10-15T13:32:42;4.90;;;2.15;;
56269;SDS011;42176;43.240;27.880;2022-10-15T13:35:16;6.18;;;2.90;;
56269;SDS011;42176;43.240;27.880;2022-10-15T13:37:44;5.53;;;2.08;;
56269;SDS011;42176;43.240;27.880;2022-10-15T13:40:20;5.53;;;2.00;;
56269;SDS011;42176;43.240;27.880;2022-10-15T13:42:58;3.22;;;2.05;;
56269;SDS011;42176;43.240;27.880;2022-10-15T13:45:26;6.93;;;2.20;;
56269;SDS011;42176;43.240;27.880;2022-10-15T13:47:56;3.63;;;1.95;;
56269;SDS011;42176;43.240;27.880;2022-10-15T13:52:51;7.03;;;1.42;;
56269;SDS011;42176;43.240;27.880;2022-10-15T13:55:22;6.22;;;2.10;;
56269;SDS011;42176;43.240;27.880;2022-10-15T13:57:55;7.53;;;1.98;;
56269;SDS011;42176;43.240;27.880;2022-10-15T14:00:28;9.25;;;2.40;;
56269;SDS011;42176;43.240;27.880;2022-10-15T14:03:30;5.80;;;1.65;;
56269;SDS011;42176;43.240;27.880;2022-10-15T14:05:50;5.50;;;1.80;;
56269;SDS011;42176;43.240;27.880;2022-10-15T14:08:22;4.55;;;1.50;;
56269;SDS011;42176;43.240;27.880;2022-10-15T14:10:51;4.07;;;2.00;;
56269;SDS011;42176;43.240;27.880;2022-10-15T14:13:20;5.20;;;2.13;;
56269;SDS011;42176;43.240;27.880;2022-10-15T14:18:25;3.90;;;1.80;;
56269;SDS011;42176;43.240;27.880;2022-10-15T14:21:00;1.95;;;1.58;;
56269;SDS011;42176;43.240;27.880;2022-10-15T14:23:26;2.17;;;1.08;;
56269;SDS011;42176;43.240;27.880;2022-10-15T14:25:53;6.47;;;2.33;;
56269;SDS011;42176;43.240;27.880;2022-10-15T14:28:23;4.55;;;1.90;;
56269;SDS011;42176;43.240;27.880;2022-10-15T14:30:49;6.47;;;2.15;;
56269;SDS011;42176;43.240;27.880;2022-10-15T14:33:32;3.30;;;1.13;;
56269;SDS011;42176;43.240;27.880;2022-10-15T14:38:52;5.25;;;1.67;;
56269;SDS011;42176;43.240;27.880;2022-10-15T14:41:31;6.75;;;2.28;;
56269;SDS011;42176;43.240;27.880;2022-10-15T14:46:37;4.78;;;1.25;;
56269;SDS011;42176;43.240;27.880;2022-10-15T14:49:38;10.95;;;1.88;;
56269;SDS011;42176;43.240;27.880;2022-10-15T14:51:59;3.38;;;1.40;;
56269;SDS011;42176;43.240;27.880;2022-10-15T14:54:38;10.38;;;1.92;;
56269;SDS011;42176;43.240;27.880;2022-10-15T14:59:47;5.45;;;2.13;;
56269;SDS011;42176;43.240;27.880;2022-10-15T15:02:16;2.92;;;1.45;;
56269;SDS011;42176;43.240;27.880;2022-10-15T15:04:42;5.35;;;2.22;;
56269;SDS011;42176;43.240;27.880;2022-10-15T15:07:19;5.25;;;1.35;;
56269;SDS011;42176;43.240;27.880;2022-10-15T15:09:49;3.28;;;2.08;;
56269;SDS011;42176;43.240;27.880;2022-10-15T15:12:21;5.43;;;2.20;;
56269;SDS011;42176;43.240;27.880;2022-10-15T15:14:49;6.28;;;1.60;;
56269;SDS011;42176;43.240;27.880;2022-10-15T15:17:18;5.55;;;1.42;;
56269;SDS011;42176;43.240;27.880;2022-10-15T15:19:46;4.38;;;1.35;;
56269;SDS011;42176;43.240;27.880;2022-10-15T15:22:13;1.90;;;1.50;;
56269;SDS011;42176;43.240;27.880;2022-10-15T15:24:48;6.95;;;1.80;;
56269;SDS011;42176;43.240;27.880;2022-10-15T15:27:21;2.42;;;1.30;;
56269;SDS011;42176;43.240;27.880;2022-10-15T15:29:49;2.30;;;1.60;;
56269;SDS011;42176;43.240;27.880;2022-10-15T15:32:18;7.75;;;1.63;;
56269;SDS011;42176;43.240;27.880;2022-10-15T15:34:44;7.07;;;2.25;;
56269;SDS011;42176;43.240;27.880;2022-10-15T15:37:14;4.97;;;2.03;;
56269;SDS011;42176;43.240;27.880;2022-10-15T15:39:47;6.13;;;2.33;;
56269;SDS011;42176;43.240;27.880;2022-10-15T15:42:17;5.70;;;1.80;;
56269;SDS011;42176;43.240;27.880;2022-10-15T15:44:44;7.90;;;2.35;;
56269;SDS011;42176;43.240;27.880;2022-10-15T15:47:10;2.80;;;2.17;;
56269;SDS011;42176;43.240;27.880;2022-10-15T15:49:36;7.75;;;2.90;;
56269;SDS011;42176;43.240;27.880;2022-10-15T15:52:02;3.13;;;1.95;;
56269;SDS011;42176;43.240;27.880;2022-10-15T15:54:29;10.07;;;2.85;;
56269;SDS011;42176;43.240;27.880;2022-10-15T15:56:54;5.95;;;1.73;;
56269;SDS011;42176;43.240;27.880;2022-10-15T15:59:20;6.22;;;2.30;;
56269;SDS011;42176;43.240;27.880;2022-10-15T16:01:45;5.22;;;1.90;;
56269;SDS011;42176;43.240;27.880;2022-10-15T16:04:11;2.22;;;1.90;;
56269;SDS011;42176;43.240;27.880;2022-10-15T16:06:40;3.65;;;2.00;;
56269;SDS011;42176;43.240;27.880;2022-10-15T16:09:06;4.75;;;2.10;;
56269;SDS011;42176;43.240;27.880;2022-10-15T16:11:32;2.72;;;1.70;;
56269;SDS011;42176;43.240;27.880;2022-10-15T16:13:58;2.17;;;1.80;;
56269;SDS011;42176;43.240;27.880;2022-10-15T16:16:26;5.03;;;2.05;;
56269;SDS011;42176;43.240;27.880;2022-10-15T16:18:52;5.70;;;2.00;;
56269;SDS011;42176;43.240;27.880;2022-10-15T16:21:21;9.48;;;2.15;;
56269;SDS011;42176;43.240;27.880;2022-10-15T16:23:47;3.85;;;2.05;;
56269;SDS011;42176;43.240;27.880;2022-10-15T16:26:13;5.70;;;2.10;;
56269;SDS011;42176;43.240;27.880;2022-10-15T16:28:38;3.90;;;1.95;;
56269;SDS011;42176;43.240;27.880;2022-10-15T16:31:17;1.70;;;1.60;;
56269;SDS011;42176;43.240;27.880;2022-10-15T16:33:50;6.90;;;1.63;;
56269;SDS011;42176;43.240;27.880;2022-10-15T16:36:16;5.35;;;2.00;;
56269;SDS011;42176;43.240;27.880;2022-10-15T16:38:42;5.70;;;1.75;;
56269;SDS011;42176;43.240;27.880;2022-10-15T16:41:10;4.88;;;1.58;;
56269;SDS011;42176;43.240;27.880;2022-10-15T16:43:36;6.05;;;1.80;;
56269;SDS011;42176;43.240;27.880;2022-10-15T16:46:02;2.65;;;1.83;;
56269;SDS011;42176;43.240;27.880;2022-10-15T16:48:28;11.77;;;1.98;;
56269;SDS011;42176;43.240;27.880;2022-10-15T16:51:02;3.85;;;1.50;;
56269;SDS011;42176;43.240;27.880;2022-10-15T16:53:29;7.53;;;1.60;;
56269;SDS011;42176;43.240;27.880;2022-10-15T16:56:00;5.88;;;2.00;;
56269;SDS011;42176;43.240;27.880;2022-10-15T16:58:27;3.70;;;2.00;;
56269;SDS011;42176;43.240;27.880;2022-10-15T17:00:56;2.83;;;2.05;;
56269;SDS011;42176;43.240;27.880;2022-10-15T17:03:28;4.53;;;1.33;;
56269;SDS011;42176;43.240;27.880;2022-10-15T17:05:57;2.70;;;1.45;;
56269;SDS011;42176;43.240;27.880;2022-10-15T17:08:26;5.68;;;2.58;;
56269;SDS011;42176;43.240;27.880;2022-10-15T17:11:32;2.55;;;1.80;;
56269;SDS011;42176;43.240;27.880;2022-10-15T17:14:05;4.47;;;1.55;;
56269;SDS011;42176;43.240;27.880;2022-10-15T17:19:05;7.95;;;1.98;;
56269;SDS011;42176;43.240;27.880;2022-10-15T17:21:31;2.47;;;1.88;;
56269;SDS011;42176;43.240;27.880;2022-10-15T17:23:58;4.22;;;2.33;;
56269;SDS011;42176;43.240;27.880;2022-10-15T17:26:29;4.18;;;1.60;;
56269;SDS011;42176;43.240;27.880;2022-10-15T17:29:06;7.38;;;2.13;;
56269;SDS011;42176;43.240;27.880;2022-10-15T17:31:33;9.88;;;2.35;;
56269;SDS011;42176;43.240;27.880;2022-10-15T17:34:00;3.97;;;1.60;;
56269;SDS011;42176;43.240;27.880;2022-10-15T17:36:28;4.82;;;1.90;;
56269;SDS011;42176;43.240;27.880;2022-10-15T17:38:56;7.45;;;2.30;;
56269;SDS011;42176;43.240;27.880;2022-10-15T17:41:25;7.03;;;2.25;;
56269;SDS011;42176;43.240;27.880;2022-10-15T17:43:52;7.72;;;1.83;;